Time;durP1;ratioP1;P1;durP2;ratioP2;P2;SDS_P1;SDS_P2;PMS_P1;PMS_P2;Temp;Humidity;BMP_temperature;BMP_pressure;BME280_temperature;BME280_humidity;BME280_pressure;Samples;Min_cycle;Max_cycle;Signal;HPM_P1;HPM_P2
2021/08/23 00:01:22;;;;;;;4.73;4.20;;;15.80;99.90;;;;;;5060498;28;20217;-83
2021/08/23 00:03:47;;;;;;;5.50;4.60;;;15.80;99.90;;;;;;5060610;28;20164;-83
2021/08/23 00:06:13;;;;;;;8.50;5.30;;;15.90;99.90;;;;;;5060152;28;20430;-82
2021/08/23 00:08:38;;;;;;;6.10;5.50;;;15.90;99.90;;;;;;5060047;28;20235;-83
2021/08/23 00:11:04;;;;;;;7.27;4.20;;;16.00;99.90;;;;;;5061386;28;20164;-83
2021/08/23 00:13:30;;;;;;;5.57;4.77;;;16.00;99.90;;;;;;5067423;28;20195;-83
2021/08/23 00:15:56;;;;;;;5.10;4.60;;;16.00;99.90;;;;;;5069617;28;20395;-83
2021/08/23 00:18:22;;;;;;;6.47;5.50;;;15.90;99.90;;;;;;5070801;28;20172;-83
2021/08/23 00:20:54;;;;;;;5.27;4.77;;;16.00;99.90;;;;;;5069076;28;20168;-83
2021/08/23 00:23:21;;;;;;;8.27;5.23;;;16.20;99.90;;;;;;5059837;28;20402;-84
2021/08/23 00:25:48;;;;;;;6.10;5.70;;;16.20;99.90;;;;;;5060161;28;20416;-83
2021/08/23 00:28:13;;;;;;;6.33;5.73;;;16.10;99.90;;;;;;5060144;28;20442;-83
2021/08/23 00:30:39;;;;;;;6.70;6.10;;;15.90;99.90;;;;;;5058547;28;20401;-83
2021/08/23 00:33:04;;;;;;;5.33;4.80;;;15.80;99.90;;;;;;5060086;28;20214;-83
2021/08/23 00:35:30;;;;;;;9.30;5.70;;;15.80;99.90;;;;;;5058924;28;20156;-83
2021/08/23 00:37:58;;;;;;;5.40;4.97;;;15.70;99.90;;;;;;5055708;28;20220;-83
2021/08/23 00:40:24;;;;;;;5.87;4.77;;;15.60;99.90;;;;;;5039945;28;20404;-84
2021/08/23 00:42:51;;;;;;;10.33;5.60;;;15.60;99.90;;;;;;5039310;28;20427;-83
2021/08/23 00:45:19;;;;;;;7.63;5.33;;;15.60;99.90;;;;;;5039447;28;20403;-82
2021/08/23 00:47:47;;;;;;;5.63;5.03;;;15.60;99.90;;;;;;5039754;28;20442;-83
2021/08/23 00:50:13;;;;;;;6.10;5.57;;;15.60;99.90;;;;;;5039417;28;20454;-83
2021/08/23 00:52:39;;;;;;;10.20;5.40;;;15.60;99.90;;;;;;5039426;28;20399;-83
2021/08/23 00:55:05;;;;;;;7.00;5.30;;;15.50;99.90;;;;;;5039021;28;20396;-83
2021/08/23 00:57:31;;;;;;;9.90;6.70;;;15.50;99.90;;;;;;5039474;28;20244;-83
2021/08/23 00:59:56;;;;;;;6.30;5.63;;;15.80;99.90;;;;;;5039394;28;20431;-83
2021/08/23 01:02:40;;;;;;;5.37;4.87;;;15.70;99.90;;;;;;5039737;28;20172;-83
2021/08/23 01:05:20;;;;;;;8.80;4.70;;;15.80;99.90;;;;;;5039794;28;20176;-83
2021/08/23 01:07:55;;;;;;;8.00;5.53;;;15.70;99.90;;;;;;5021674;28;20493;-83
2021/08/23 01:10:28;;;;;;;8.83;4.93;;;15.70;99.90;;;;;;5021220;28;20399;-83
2021/08/23 01:12:54;;;;;;;7.40;5.87;;;15.80;99.90;;;;;;5021352;28;20388;-83
2021/08/23 01:15:21;;;;;;;6.47;5.83;;;15.80;99.90;;;;;;5038876;28;20395;-83
2021/08/23 01:17:47;;;;;;;6.23;5.13;;;15.80;99.90;;;;;;5021570;28;20801;-83
2021/08/23 01:20:12;;;;;;;5.17;4.67;;;15.90;99.90;;;;;;5021240;28;20395;-83
2021/08/23 01:22:43;;;;;;;5.60;5.03;;;15.70;99.90;;;;;;5038721;28;20167;-83
2021/08/23 01:25:13;;;;;;;6.10;4.90;;;15.50;99.90;;;;;;5038620;28;20193;-83
2021/08/23 01:27:40;;;;;;;4.83;4.43;;;15.60;99.90;;;;;;5039073;28;20443;-83
2021/08/23 01:30:09;;;;;;;6.00;4.90;;;15.60;99.90;;;;;;5039799;28;20892;-83
2021/08/23 01:32:35;;;;;;;11.70;5.40;;;15.60;99.90;;;;;;5041834;28;20396;-83
2021/08/23 01:35:04;;;;;;;6.83;5.13;;;15.70;99.90;;;;;;5041693;28;20395;-83
2021/08/23 01:37:31;;;;;;;7.47;5.80;;;15.80;99.90;;;;;;5039017;28;20392;-82
2021/08/23 01:39:57;;;;;;;6.10;5.53;;;16.00;99.90;;;;;;5042671;28;20383;-83
2021/08/23 01:42:23;;;;;;;5.20;4.73;;;15.80;99.90;;;;;;5058514;28;20388;-83
2021/08/23 01:44:49;;;;;;;6.20;5.67;;;15.80;99.90;;;;;;5041498;28;20394;-82
2021/08/23 01:47:15;;;;;;;10.90;6.63;;;15.70;99.90;;;;;;5041220;28;20400;-83
2021/08/23 01:49:41;;;;;;;6.10;5.50;;;15.70;99.90;;;;;;5058546;28;20176;-82
2021/08/23 01:52:08;;;;;;;5.90;5.37;;;15.70;99.90;;;;;;5058511;28;20164;-83
2021/08/23 01:54:34;;;;;;;7.13;5.60;;;15.60;99.90;;;;;;5041463;28;20442;-83
2021/08/23 01:56:59;;;;;;;6.47;5.87;;;15.60;99.90;;;;;;5057296;28;20396;-83
2021/08/23 01:59:25;;;;;;;8.13;5.90;;;15.60;99.90;;;;;;5057737;28;20161;-83
2021/08/23 02:01:50;;;;;;;7.37;6.67;;;15.80;99.90;;;;;;5041219;28;20177;-82
2021/08/23 02:04:16;;;;;;;8.13;7.20;;;15.80;99.90;;;;;;5058411;28;20168;-83
2021/08/23 02:06:41;;;;;;;12.20;5.83;;;15.90;99.90;;;;;;5055571;28;20169;-83
2021/08/23 02:09:07;;;;;;;6.73;6.03;;;15.90;99.90;;;;;;5039387;28;20217;-84
2021/08/23 02:11:33;;;;;;;7.07;5.90;;;15.70;99.90;;;;;;5039530;28;20327;-83
2021/08/23 02:13:59;;;;;;;6.43;5.83;;;15.60;99.90;;;;;;5040295;28;20444;-83
2021/08/23 02:16:25;;;;;;;7.47;6.77;;;15.60;99.90;;;;;;5038885;28;20188;-83
2021/08/23 02:18:50;;;;;;;6.67;5.30;;;15.70;99.90;;;;;;5039150;28;20165;-83
2021/08/23 02:21:19;;;;;;;13.83;6.13;;;15.80;99.90;;;;;;5038659;28;20167;-83
2021/08/23 02:23:45;;;;;;;8.73;6.50;;;15.80;99.90;;;;;;5039229;28;20247;-83
2021/08/23 02:26:11;;;;;;;6.63;5.87;;;15.90;99.90;;;;;;5021354;28;20457;-83
2021/08/23 02:28:36;;;;;;;8.90;6.33;;;16.00;99.90;;;;;;5038165;28;20903;-83
2021/08/23 02:31:02;;;;;;;7.20;5.60;;;15.90;99.90;;;;;;5038798;28;20167;-83
2021/08/23 02:33:27;;;;;;;8.73;6.13;;;16.00;99.90;;;;;;5038942;28;20164;-83
2021/08/23 02:35:53;;;;;;;6.70;5.17;;;15.70;99.90;;;;;;5041723;28;20168;-84
2021/08/23 02:38:19;;;;;;;7.03;6.13;;;15.70;99.90;;;;;;5039225;28;20228;-83
2021/08/23 02:40:44;;;;;;;11.20;6.57;;;15.90;99.90;;;;;;5038600;28;20173;-83
2021/08/23 02:43:10;;;;;;;7.13;6.27;;;15.90;99.90;;;;;;5039091;28;20168;-84
2021/08/23 02:45:35;;;;;;;7.60;6.13;;;15.80;99.90;;;;;;5040485;28;20192;-83
2021/08/23 02:48:01;;;;;;;7.13;5.20;;;15.80;99.90;;;;;;5040939;28;20192;-83
2021/08/23 02:50:26;;;;;;;7.90;7.10;;;15.80;99.90;;;;;;5023473;28;20157;-83
2021/08/23 02:52:52;;;;;;;6.17;5.57;;;15.90;99.90;;;;;;5040914;28;20633;-82
2021/08/23 02:55:17;;;;;;;7.57;6.00;;;15.70;99.90;;;;;;5021970;28;20168;-83
2021/08/23 02:57:43;;;;;;;7.10;5.67;;;15.60;99.90;;;;;;5039779;28;20268;-83
2021/08/23 03:00:09;;;;;;;9.40;6.67;;;15.60;99.90;;;;;;5040758;28;20165;-83
2021/08/23 03:02:36;;;;;;;7.30;6.60;;;15.70;99.90;;;;;;5040529;28;20220;-83
2021/08/23 03:05:02;;;;;;;10.20;6.87;;;15.80;99.90;;;;;;5040722;28;20426;-83
2021/08/23 03:07:28;;;;;;;7.20;6.20;;;15.90;99.90;;;;;;5027878;28;20466;-83
2021/08/23 03:09:54;;;;;;;10.33;5.90;;;16.00;99.90;;;;;;5043578;28;20427;-83
2021/08/23 03:12:19;;;;;;;7.20;6.20;;;16.20;99.90;;;;;;5025015;28;20173;-83
2021/08/23 03:14:45;;;;;;;6.90;6.20;;;16.30;99.90;;;;;;5025979;28;20176;-82
2021/08/23 03:17:11;;;;;;;17.67;6.17;;;16.20;99.90;;;;;;5024082;28;20181;-82
2021/08/23 03:19:36;;;;;;;6.40;5.27;;;16.10;99.90;;;;;;5042389;28;20160;-82
2021/08/23 03:22:02;;;;;;;5.97;5.47;;;16.10;99.90;;;;;;5041634;28;20200;-82
2021/08/23 03:24:28;;;;;;;6.07;5.47;;;16.30;99.90;;;;;;5041633;28;20161;-82
2021/08/23 03:26:53;;;;;;;9.30;6.50;;;16.40;99.90;;;;;;5042019;28;20195;-82
2021/08/23 03:29:19;;;;;;;6.40;5.80;;;16.50;99.90;;;;;;5023863;28;20201;-82
2021/08/23 03:31:44;;;;;;;5.53;5.00;;;16.50;99.90;;;;;;5041585;28;20503;-82
2021/08/23 03:34:13;;;;;;;8.70;5.80;;;16.60;99.90;;;;;;5042037;28;20640;-82
2021/08/23 03:36:41;;;;;;;6.57;5.97;;;16.50;99.90;;;;;;5041341;28;20168;-82
2021/08/23 03:39:07;;;;;;;6.33;5.73;;;16.30;99.90;;;;;;5041338;28;20474;-82
2021/08/23 03:41:33;;;;;;;6.70;6.00;;;16.40;99.90;;;;;;5041373;28;20403;-82
2021/08/23 03:43:59;;;;;;;7.20;6.10;;;16.50;99.90;;;;;;5041274;28;20417;-82
2021/08/23 03:46:26;;;;;;;7.17;6.47;;;16.60;99.90;;;;;;5023018;28;20403;-82
2021/08/23 03:48:52;;;;;;;6.30;5.70;;;16.70;99.90;;;;;;5023738;28;20207;-82
2021/08/23 03:51:20;;;;;;;6.57;5.97;;;16.70;99.90;;;;;;5041489;28;20391;-82
2021/08/23 03:53:45;;;;;;;8.57;5.37;;;16.70;99.90;;;;;;5041391;28;20152;-82
2021/08/23 03:56:11;;;;;;;6.53;5.93;;;16.80;99.90;;;;;;5040883;28;20384;-83
2021/08/23 03:58:36;;;;;;;6.33;5.73;;;16.80;99.90;;;;;;5040827;28;20176;-82
2021/08/23 04:01:02;;;;;;;5.30;4.80;;;16.80;99.90;;;;;;5041109;28;20160;-82
2021/08/23 04:03:30;;;;;;;5.53;5.00;;;16.50;99.90;;;;;;5040886;28;20171;-80
2021/08/23 04:05:55;;;;;;;6.83;5.60;;;16.50;99.90;;;;;;5040777;28;20219;-82
2021/08/23 04:08:21;;;;;;;7.00;5.83;;;16.60;99.90;;;;;;5041036;28;20996;-82
2021/08/23 04:10:50;;;;;;;7.80;6.03;;;16.60;99.90;;;;;;5023741;28;20157;-84
2021/08/23 04:13:15;;;;;;;5.93;5.37;;;16.70;99.90;;;;;;4979382;28;20306;-84
2021/08/23 04:15:45;;;;;;;6.13;5.67;;;16.70;99.90;;;;;;4980115;28;20442;-83
2021/08/23 04:18:11;;;;;;;6.23;5.73;;;16.70;99.90;;;;;;4979291;28;20198;-83
2021/08/23 04:20:36;;;;;;;8.17;7.33;;;16.80;99.90;;;;;;4978867;28;20402;-83
2021/08/23 04:23:02;;;;;;;8.30;7.60;;;16.70;99.90;;;;;;4980327;28;20384;-83
2021/08/23 04:25:27;;;;;;;6.77;6.07;;;16.80;99.90;;;;;;4979606;28;20174;-83
2021/08/23 04:27:53;;;;;;;7.85;6.60;;;16.80;99.90;;;;;;4978978;28;20541;-82
2021/08/23 04:30:18;;;;;;;9.70;6.60;;;16.80;99.90;;;;;;4979834;28;20727;-83
2021/08/23 04:32:44;;;;;;;18.47;8.57;;;16.80;99.90;;;;;;4979661;28;20179;-83
2021/08/23 04:35:09;;;;;;;6.47;5.90;;;16.80;99.90;;;;;;4979326;28;20166;-83
2021/08/23 04:37:35;;;;;;;7.57;6.87;;;16.80;99.90;;;;;;4980071;28;20163;-83
2021/08/23 04:40:00;;;;;;;6.93;6.33;;;16.80;99.90;;;;;;5018474;28;20209;-83
2021/08/23 04:42:26;;;;;;;8.13;6.13;;;16.70;99.90;;;;;;5018586;28;20169;-83
2021/08/23 04:44:51;;;;;;;11.07;6.43;;;16.70;99.90;;;;;;5050980;28;20194;-84
2021/08/23 04:47:17;;;;;;;6.87;6.20;;;16.70;99.90;;;;;;5060049;28;20518;-83
2021/08/23 04:49:43;;;;;;;6.87;6.13;;;16.40;99.90;;;;;;5059995;28;20217;-84
2021/08/23 04:52:08;;;;;;;7.83;7.03;;;16.50;99.90;;;;;;5063407;28;20190;-83
2021/08/23 04:54:34;;;;;;;7.17;5.70;;;16.50;99.90;;;;;;5062421;28;20391;-83
2021/08/23 04:57:00;;;;;;;7.60;6.90;;;16.50;99.90;;;;;;5059274;28;20165;-83
2021/08/23 04:59:25;;;;;;;8.23;6.50;;;16.40;99.90;;;;;;5061618;28;20160;-83
2021/08/23 05:01:50;;;;;;;9.23;7.93;;;16.50;99.90;;;;;;5060153;28;20171;-83
2021/08/23 05:04:18;;;;;;;8.43;6.97;;;16.60;99.90;;;;;;5059916;28;20152;-83
2021/08/23 05:06:44;;;;;;;7.00;6.30;;;16.60;99.90;;;;;;5059155;28;20156;-83
2021/08/23 05:09:09;;;;;;;10.07;7.00;;;16.60;99.90;;;;;;5058571;28;20454;-83
2021/08/23 05:11:36;;;;;;;15.63;7.30;;;16.60;99.90;;;;;;5059388;28;20163;-83
2021/08/23 05:14:02;;;;;;;11.23;7.50;;;16.60;99.90;;;;;;5059771;28;20157;-83
2021/08/23 05:16:27;;;;;;;9.10;7.00;;;16.70;99.90;;;;;;5059512;28;20451;-83
2021/08/23 05:18:53;;;;;;;7.07;6.33;;;16.70;99.90;;;;;;5059672;28;20625;-83
2021/08/23 05:21:18;;;;;;;8.13;7.13;;;16.70;99.90;;;;;;5057935;28;20184;-82
2021/08/23 05:23:44;;;;;;;6.90;6.10;;;16.70;99.90;;;;;;5059482;28;20210;-83
2021/08/23 05:26:10;;;;;;;9.70;7.00;;;16.80;99.90;;;;;;5057443;28;20176;-83
2021/08/23 05:28:35;;;;;;;9.70;7.07;;;16.70;99.90;;;;;;5059532;28;20192;-83
2021/08/23 05:31:01;;;;;;;6.73;6.13;;;16.80;99.90;;;;;;5059103;28;20156;-83
2021/08/23 05:33:26;;;;;;;7.50;6.70;;;16.60;99.90;;;;;;5060032;28;20649;-82
2021/08/23 05:35:52;;;;;;;8.33;6.93;;;16.70;99.90;;;;;;5059768;28;20537;-83
2021/08/23 05:38:17;;;;;;;10.80;7.93;;;16.70;99.90;;;;;;5052780;28;20716;-83
2021/08/23 05:40:43;;;;;;;8.80;7.47;;;16.80;99.90;;;;;;5052009;28;20171;-81
2021/08/23 05:43:08;;;;;;;7.93;6.47;;;16.70;99.90;;;;;;5054307;28;20206;-83
2021/08/23 05:45:34;;;;;;;9.10;6.93;;;16.80;99.90;;;;;;5039851;28;20172;-83
2021/08/23 05:47:59;;;;;;;7.40;6.67;;;16.80;99.90;;;;;;5039186;28;20195;-83
2021/08/23 05:50:25;;;;;;;8.17;7.37;;;16.80;99.90;;;;;;5039739;28;20172;-83
2021/08/23 05:52:50;;;;;;;7.57;6.80;;;16.70;99.90;;;;;;5040394;28;20172;-84
2021/08/23 05:55:16;;;;;;;7.87;7.17;;;16.70;99.90;;;;;;5039882;28;20207;-84
2021/08/23 05:57:42;;;;;;;7.97;7.17;;;16.90;99.90;;;;;;5039740;28;20629;-83
2021/08/23 06:00:09;;;;;;;12.37;8.33;;;16.80;99.90;;;;;;5040293;28;20400;-83
2021/08/23 06:02:34;;;;;;;9.90;7.87;;;16.90;99.90;;;;;;5022249;28;20645;-83
2021/08/23 06:05:00;;;;;;;9.27;6.97;;;16.90;99.90;;;;;;5021105;28;20464;-82
2021/08/23 06:07:25;;;;;;;8.37;7.50;;;17.00;99.90;;;;;;5038318;28;20176;-82
2021/08/23 06:09:51;;;;;;;14.00;8.27;;;17.10;99.90;;;;;;5040781;28;20196;-83
2021/08/23 06:12:17;;;;;;;8.97;7.80;;;17.10;99.90;;;;;;5032649;28;20181;-81
2021/08/23 06:14:42;;;;;;;9.20;7.37;;;17.10;99.90;;;;;;5054083;28;20191;-80
2021/08/23 06:17:35;;;;;;;7.93;7.13;;;17.10;99.90;;;;;;5046225;28;20181;-83
2021/08/23 06:20:24;;;;;;;9.50;6.43;;;17.00;99.90;;;;;;5026648;28;20176;-83
2021/08/23 06:22:51;;;;;;;7.53;6.80;;;17.00;99.90;;;;;;5019060;28;20411;-82
2021/08/23 06:25:23;;;;;;;8.57;6.40;;;17.00;99.90;;;;;;5001438;28;20786;-83
2021/08/23 06:27:49;;;;;;;10.00;7.40;;;17.10;99.90;;;;;;4985632;28;20453;-80
2021/08/23 06:30:15;;;;;;;7.70;6.83;;;16.90;99.90;;;;;;4998852;28;20436;-82
2021/08/23 06:32:40;;;;;;;7.37;6.60;;;16.70;99.90;;;;;;4997278;28;20162;-84
2021/08/23 06:35:17;;;;;;;8.00;6.67;;;16.80;99.90;;;;;;5000850;28;20186;-84
2021/08/23 06:37:43;;;;;;;8.60;7.63;;;16.90;99.90;;;;;;4998557;28;20199;-80
2021/08/23 06:40:09;;;;;;;11.07;6.87;;;17.00;99.90;;;;;;5048230;28;20435;-84
2021/08/23 06:42:37;;;;;;;9.10;7.27;;;16.90;99.90;;;;;;5049955;28;20189;-83
2021/08/23 06:45:04;;;;;;;10.13;6.93;;;16.90;99.90;;;;;;5035504;28;20207;-84
2021/08/23 06:47:29;;;;;;;8.33;7.37;;;16.90;99.90;;;;;;5049835;28;20418;-79
2021/08/23 06:49:55;;;;;;;9.57;7.83;;;16.90;99.90;;;;;;5040259;28;20427;-83
2021/08/23 06:52:20;;;;;;;10.40;8.63;;;16.90;99.90;;;;;;5041839;28;20181;-84
2021/08/23 06:54:46;;;;;;;9.00;8.10;;;16.90;99.90;;;;;;5028336;28;20168;-82
2021/08/23 06:57:11;;;;;;;9.13;8.20;;;17.00;99.90;;;;;;5065143;28;20233;-82
2021/08/23 06:59:39;;;;;;;14.17;8.30;;;17.00;99.90;;;;;;5052670;28;20167;-82
2021/08/23 07:02:05;;;;;;;8.90;7.60;;;17.00;99.90;;;;;;5064996;28;20430;-84
2021/08/23 07:04:31;;;;;;;13.07;8.63;;;17.10;99.90;;;;;;5071785;28;20156;-83
2021/08/23 07:06:56;;;;;;;9.87;7.90;;;17.10;99.90;;;;;;5065123;28;20426;-83
2021/08/23 07:09:22;;;;;;;14.33;9.67;;;17.00;99.90;;;;;;5062944;28;20246;-83
2021/08/23 07:11:48;;;;;;;9.23;8.07;;;17.10;99.90;;;;;;5062693;28;20678;-82
2021/08/23 07:14:13;;;;;;;19.23;9.27;;;17.10;99.90;;;;;;5062169;28;20202;-83
2021/08/23 07:16:39;;;;;;;8.90;8.00;;;17.10;99.90;;;;;;5062071;28;20179;-83
2021/08/23 07:19:04;;;;;;;11.33;8.50;;;17.00;99.90;;;;;;5060705;28;20230;-83
2021/08/23 07:21:30;;;;;;;9.87;7.87;;;17.10;99.90;;;;;;5044551;28;20184;-83
2021/08/23 07:23:55;;;;;;;9.33;8.33;;;17.20;99.90;;;;;;5062065;28;20176;-83
2021/08/23 07:26:21;;;;;;;9.77;8.77;;;17.20;99.90;;;;;;5062713;28;20168;-83
2021/08/23 07:28:46;;;;;;;10.83;9.37;;;17.30;99.90;;;;;;5062161;28;20253;-83
2021/08/23 07:31:12;;;;;;;11.97;9.00;;;17.00;99.90;;;;;;5044884;28;20519;-83
2021/08/23 07:33:37;;;;;;;9.83;8.33;;;17.20;99.90;;;;;;5062016;28;20179;-83
2021/08/23 07:36:03;;;;;;;10.00;7.73;;;17.30;99.90;;;;;;5062657;28;20163;-83
2021/08/23 07:38:29;;;;;;;11.07;9.70;;;17.40;99.90;;;;;;5053279;28;20252;-83
2021/08/23 07:40:55;;;;;;;10.00;8.10;;;17.40;99.90;;;;;;5032978;28;20177;-83
2021/08/23 07:43:21;;;;;;;10.17;8.00;;;17.50;99.90;;;;;;5022172;28;20193;-83
2021/08/23 07:45:48;;;;;;;10.70;9.60;;;17.50;99.90;;;;;;5028947;28;20435;-83
2021/08/23 07:48:14;;;;;;;9.80;8.40;;;17.60;99.90;;;;;;5014769;28;20209;-83
2021/08/23 07:50:39;;;;;;;10.20;9.10;;;17.70;99.90;;;;;;5033046;28;20416;-83
2021/08/23 07:53:05;;;;;;;10.10;7.60;;;17.90;99.90;;;;;;5044398;28;20177;-83
2021/08/23 07:55:31;;;;;;;9.70;8.20;;;18.00;99.90;;;;;;5009969;28;20172;-83
2021/08/23 07:57:57;;;;;;;8.93;8.13;;;18.00;99.90;;;;;;5043744;28;20709;-83
2021/08/23 08:00:23;;;;;;;8.77;7.20;;;18.10;99.90;;;;;;5038760;28;20420;-82
2021/08/23 08:02:48;;;;;;;9.10;7.50;;;18.10;99.90;;;;;;5034650;28;20307;-83
2021/08/23 08:05:14;;;;;;;11.13;8.67;;;18.10;99.90;;;;;;5024543;28;20488;-83
2021/08/23 08:07:41;;;;;;;9.80;8.80;;;18.10;99.90;;;;;;5042225;28;20665;-83
2021/08/23 08:10:08;;;;;;;8.93;8.00;;;18.10;99.90;;;;;;5042520;28;20169;-83
2021/08/23 08:12:34;;;;;;;9.83;8.90;;;18.10;99.90;;;;;;5044437;28;20408;-83
2021/08/23 08:14:59;;;;;;;9.97;9.07;;;18.20;99.90;;;;;;5026985;28;20481;-83
2021/08/23 08:17:26;;;;;;;11.50;8.00;;;18.20;99.90;;;;;;5042969;28;20180;-82
2021/08/23 08:19:51;;;;;;;10.50;9.37;;;18.10;99.90;;;;;;5042097;28;20169;-83
2021/08/23 08:22:17;;;;;;;9.43;8.43;;;18.10;99.90;;;;;;5007593;28;20384;-83
2021/08/23 08:24:43;;;;;;;8.10;7.40;;;18.10;99.90;;;;;;5022959;28;20224;-83
2021/08/23 08:27:09;;;;;;;8.07;7.17;;;18.10;99.90;;;;;;5040546;28;20153;-83
2021/08/23 08:29:37;;;;;;;8.23;7.53;;;18.20;99.90;;;;;;5040461;28;20451;-83
2021/08/23 08:32:04;;;;;;;7.80;6.90;;;18.10;99.90;;;;;;5041241;28;20603;-83
2021/08/23 08:34:30;;;;;;;10.30;8.07;;;18.20;99.90;;;;;;5039727;28;20415;-82
2021/08/23 08:36:55;;;;;;;7.57;6.87;;;18.20;99.90;;;;;;5040490;28;20487;-83
2021/08/23 08:39:21;;;;;;;8.20;7.37;;;18.30;99.90;;;;;;5048812;28;20648;-83
2021/08/23 08:41:47;;;;;;;9.80;7.93;;;18.30;99.90;;;;;;5058596;28;20214;-83
2021/08/23 08:44:13;;;;;;;8.47;7.43;;;18.50;99.90;;;;;;5060842;28;20639;-84
2021/08/23 08:46:39;;;;;;;9.40;7.70;;;18.60;99.90;;;;;;5060567;28;20534;-84
2021/08/23 08:49:05;;;;;;;8.27;7.47;;;18.60;99.90;;;;;;5058415;28;20341;-84
2021/08/23 08:51:36;;;;;;;10.27;8.90;;;18.60;99.90;;;;;;5059541;28;20395;-82
2021/08/23 08:54:04;;;;;;;8.27;7.53;;;18.50;99.90;;;;;;5058651;28;20422;-82
2021/08/23 08:56:32;;;;;;;11.90;8.90;;;18.70;99.90;;;;;;5061771;28;20434;-82
2021/08/23 08:58:59;;;;;;;9.90;8.90;;;18.70;99.90;;;;;;5059221;28;20403;-83
2021/08/23 09:01:25;;;;;;;9.30;8.40;;;18.60;99.90;;;;;;5058114;28;20427;-84
2021/08/23 09:03:51;;;;;;;7.60;6.90;;;18.70;99.90;;;;;;5038584;28;20407;-84
2021/08/23 09:06:16;;;;;;;7.27;6.60;;;18.80;99.90;;;;;;5058946;28;20419;-84
2021/08/23 09:08:44;;;;;;;7.60;6.80;;;18.80;99.90;;;;;;5058750;28;20207;-84
2021/08/23 09:11:25;;;;;;;8.30;7.50;;;18.70;99.90;;;;;;5059467;28;20199;-82
2021/08/23 09:14:02;;;;;;;8.73;6.90;;;18.90;99.90;;;;;;5058266;28;20425;-82
2021/08/23 09:16:34;;;;;;;8.60;7.80;;;18.90;99.90;;;;;;5025175;28;20454;-84
2021/08/23 09:19:01;;;;;;;8.23;7.30;;;18.90;99.90;;;;;;5059662;28;20403;-83
2021/08/23 09:21:35;;;;;;;9.23;8.33;;;19.10;99.90;;;;;;5058922;28;20418;-84
2021/08/23 09:24:01;;;;;;;11.87;7.93;;;19.30;99.90;;;;;;5025992;28;20418;-83
2021/08/23 09:26:32;;;;;;;9.93;8.97;;;19.40;99.90;;;;;;5036892;28;20739;-83
2021/08/23 09:29:00;;;;;;;9.10;8.30;;;19.60;99.90;;;;;;5059566;28;20207;-83
2021/08/23 09:31:29;;;;;;;6.80;6.20;;;19.60;99.90;;;;;;5059625;28;20415;-83
2021/08/23 09:33:59;;;;;;;8.13;7.40;;;19.30;99.90;;;;;;5060620;28;20395;-83
2021/08/23 09:36:25;;;;;;;7.07;6.43;;;19.30;99.90;;;;;;5059033;28;20502;-84
2021/08/23 09:39:09;;;;;;;6.70;6.10;;;19.30;99.90;;;;;;5043641;28;20473;-83
2021/08/23 09:41:40;;;;;;;6.03;5.53;;;19.00;99.90;;;;;;5029943;28;20787;-81
2021/08/23 09:44:09;;;;;;;6.13;5.63;;;18.90;99.90;;;;;;5006223;28;20424;-83
2021/08/23 09:46:35;;;;;;;7.63;6.87;;;19.00;99.90;;;;;;5010741;28;20430;-83
2021/08/23 09:49:03;;;;;;;9.57;6.97;;;19.10;99.90;;;;;;5038583;28;20451;-83
2021/08/23 09:51:37;;;;;;;6.47;5.83;;;19.10;99.90;;;;;;5038596;28;20424;-83
2021/08/23 09:54:07;;;;;;;8.53;6.57;;;19.10;99.90;;;;;;5037277;28;20951;-83
2021/08/23 09:56:35;;;;;;;6.80;6.20;;;19.20;99.90;;;;;;5018598;28;20399;-83
2021/08/23 09:59:02;;;;;;;9.37;7.87;;;19.10;99.90;;;;;;5019684;28;20400;-83
2021/08/23 10:01:31;;;;;;;6.40;5.80;;;19.30;99.90;;;;;;5020640;28;20477;-84
2021/08/23 10:04:01;;;;;;;7.20;6.47;;;19.60;99.90;;;;;;5022878;28;20400;-83
2021/08/23 10:06:27;;;;;;;8.40;6.73;;;19.50;99.90;;;;;;5039673;28;20399;-84
2021/08/23 10:08:53;;;;;;;8.90;6.70;;;19.30;99.90;;;;;;5039893;28;20932;-84
2021/08/23 10:11:20;;;;;;;7.67;6.97;;;19.60;99.90;;;;;;5039159;28;20422;-84
2021/08/23 10:13:45;;;;;;;6.10;5.60;;;20.00;99.90;;;;;;5042695;28;20169;-84
2021/08/23 10:16:11;;;;;;;7.60;6.90;;;19.90;99.90;;;;;;5046512;28;20492;-82
2021/08/23 10:18:39;;;;;;;5.37;4.97;;;19.90;99.90;;;;;;5042602;28;20169;-84
2021/08/23 10:21:07;;;;;;;6.40;5.83;;;19.90;99.90;;;;;;5039764;28;20691;-83
2021/08/23 10:23:35;;;;;;;7.87;7.17;;;20.10;99.90;;;;;;5039601;28;20423;-84
2021/08/23 10:26:01;;;;;;;8.23;7.50;;;20.20;99.90;;;;;;5039485;28;20400;-84
2021/08/23 10:28:36;;;;;;;6.93;6.33;;;20.20;99.90;;;;;;5038523;28;20439;-83
2021/08/23 10:31:07;;;;;;;7.23;6.57;;;20.10;99.90;;;;;;5038940;28;20232;-84
2021/08/23 10:33:38;;;;;;;8.63;7.83;;;20.10;99.90;;;;;;5039372;28;20518;-84
2021/08/23 10:36:07;;;;;;;8.23;7.30;;;20.00;99.90;;;;;;5038781;28;20868;-83
2021/08/23 10:38:33;;;;;;;7.03;6.33;;;20.10;99.90;;;;;;5038314;28;20474;-84
2021/08/23 10:41:11;;;;;;;7.60;6.93;;;20.10;99.90;;;;;;5039484;28;20824;-83
2021/08/23 10:43:50;;;;;;;6.57;5.97;;;20.20;99.90;;;;;;5038742;28;20548;-83
2021/08/23 10:46:27;;;;;;;6.80;6.00;;;20.30;99.90;;;;;;5039564;28;20407;-84
2021/08/23 10:48:56;;;;;;;7.27;6.57;;;20.20;99.90;;;;;;5039439;28;20579;-84
2021/08/23 10:51:43;;;;;;;6.67;5.70;;;20.10;99.90;;;;;;5039005;28;20410;-84
2021/08/23 10:54:25;;;;;;;8.00;7.20;;;20.00;99.90;;;;;;4996892;28;20523;-84
2021/08/23 10:57:05;;;;;;;7.07;6.43;;;19.90;99.90;;;;;;4964842;28;20389;-84
2021/08/23 10:59:44;;;;;;;7.23;6.53;;;19.80;99.90;;;;;;4980819;28;20413;-84
2021/08/23 11:02:12;;;;;;;9.73;6.60;;;19.80;99.90;;;;;;4997672;28;20535;-84
2021/08/23 11:05:02;;;;;;;8.53;7.17;;;19.80;99.90;;;;;;4997845;28;20409;-84
2021/08/23 11:07:30;;;;;;;7.47;6.77;;;19.70;99.90;;;;;;4985260;28;20425;-80
2021/08/23 11:10:12;;;;;;;7.17;6.57;;;19.60;99.90;;;;;;4979591;28;20427;-82
2021/08/23 11:12:47;;;;;;;6.97;6.37;;;19.50;99.90;;;;;;4995480;28;20411;-80
2021/08/23 11:15:20;;;;;;;7.63;6.50;;;19.40;99.90;;;;;;4974787;28;20492;-80
2021/08/23 11:17:48;;;;;;;6.20;5.70;;;19.40;99.90;;;;;;4991629;28;20413;-80
2021/08/23 11:20:19;;;;;;;10.90;8.00;;;19.40;99.90;;;;;;4993386;28;20410;-82
2021/08/23 11:23:04;;;;;;;9.40;8.50;;;19.40;99.90;;;;;;4993790;28;20414;-82
2021/08/23 11:25:43;;;;;;;8.87;7.20;;;19.40;99.90;;;;;;5022020;28;20417;-80
2021/08/23 11:28:12;;;;;;;9.97;7.37;;;19.30;99.90;;;;;;5036001;28;20451;-82
2021/08/23 11:30:41;;;;;;;8.20;7.30;;;19.20;99.90;;;;;;5005041;28;20403;-80
2021/08/23 11:33:09;;;;;;;9.90;7.20;;;19.20;99.90;;;;;;5024143;28;20438;-80
2021/08/23 11:35:35;;;;;;;8.20;7.47;;;19.20;99.90;;;;;;5054408;28;20494;-79
2021/08/23 11:38:04;;;;;;;8.63;7.53;;;19.20;99.90;;;;;;5055850;28;20458;-79
2021/08/23 11:40:49;;;;;;;9.40;8.40;;;19.20;99.90;;;;;;5037021;28;20427;-82
2021/08/23 11:43:15;;;;;;;7.67;6.87;;;19.20;99.90;;;;;;5022846;28;20880;-78
2021/08/23 11:45:44;;;;;;;9.57;8.03;;;19.10;99.90;;;;;;5053287;28;20416;-79
2021/08/23 11:48:10;;;;;;;12.93;8.80;;;19.20;99.90;;;;;;5056004;28;20247;-80
2021/08/23 11:50:36;;;;;;;10.83;8.00;;;19.10;99.90;;;;;;5058194;28;20439;-79
2021/08/23 11:53:07;;;;;;;12.47;8.97;;;19.10;99.90;;;;;;5058522;28;20438;-80
2021/08/23 11:55:38;;;;;;;8.80;7.67;;;19.00;99.90;;;;;;5041705;28;20414;-84
2021/08/23 11:58:09;;;;;;;9.30;8.47;;;19.00;99.90;;;;;;5039273;28;20388;-79
2021/08/23 12:00:36;;;;;;;8.63;7.80;;;18.90;99.90;;;;;;5018858;28;20408;-79
2021/08/23 12:03:14;;;;;;;7.70;6.93;;;18.90;99.90;;;;;;5018557;28;20479;-80
2021/08/23 12:05:49;;;;;;;7.17;6.50;;;18.80;99.90;;;;;;5034797;28;20397;-79
2021/08/23 12:08:31;;;;;;;6.90;6.20;;;18.70;99.90;;;;;;5048442;28;20492;-80
2021/08/23 12:10:59;;;;;;;6.73;6.03;;;18.70;99.90;;;;;;5054318;28;20448;-79
2021/08/23 12:13:27;;;;;;;8.20;7.40;;;18.70;99.90;;;;;;5054749;28;20502;-79
2021/08/23 12:15:56;;;;;;;10.10;8.07;;;18.60;99.90;;;;;;5040931;28;20395;-80
2021/08/23 12:18:36;;;;;;;8.33;7.03;;;18.70;99.90;;;;;;5024290;28;20402;-80
2021/08/23 12:21:04;;;;;;;7.23;6.60;;;18.60;99.90;;;;;;4998312;28;20413;-79
2021/08/23 12:23:29;;;;;;;7.17;6.07;;;18.70;99.90;;;;;;5011794;28;20483;-79
2021/08/23 12:26:13;;;;;;;7.10;6.10;;;18.70;99.90;;;;;;5012310;28;20409;-82
2021/08/23 12:28:48;;;;;;;7.60;6.90;;;18.70;99.90;;;;;;5012028;28;20232;-80
2021/08/23 12:31:14;;;;;;;6.80;6.10;;;18.80;99.90;;;;;;5012349;28;20397;-80
2021/08/23 12:33:40;;;;;;;7.60;6.90;;;18.80;99.90;;;;;;5011949;28;20424;-79
2021/08/23 12:36:06;;;;;;;8.63;6.23;;;18.90;99.90;;;;;;4995504;28;20398;-80
2021/08/23 12:38:31;;;;;;;8.13;6.23;;;19.00;99.90;;;;;;5011907;28;20228;-79
2021/08/23 12:40:57;;;;;;;6.53;5.83;;;19.20;99.90;;;;;;5034718;28;20176;-80
2021/08/23 12:43:23;;;;;;;6.23;5.63;;;19.30;99.90;;;;;;5051334;28;20180;-80
2021/08/23 12:45:49;;;;;;;6.90;6.20;;;19.40;99.90;;;;;;5051398;28;20179;-80
2021/08/23 12:48:16;;;;;;;5.33;4.83;;;19.60;99.90;;;;;;5051653;28;20487;-80